Time;durP1;ratioP1;P1;durP2;ratioP2;P2;SDS_P1;SDS_P2;PMS_P1;PMS_P2;Temp;Humidity;BMP_temperature;BMP_pressure;BME280_temperature;BME280_humidity;BME280_pressure;Samples;Min_cycle;Max_cycle;Signal;HPM_P1;HPM_P2
2023/10/31 00:01:59;;;;;;;9.20;1.90;;;10.50;99.90;;;;;;5073275;28;20040;-79
2023/10/31 00:04:44;;;;;;;7.40;1.65;;;10.50;99.90;;;;;;5056332;28;20573;-82
2023/10/31 00:07:31;;;;;;;12.73;1.85;;;10.50;99.90;;;;;;5073006;28;20056;-80
2023/10/31 00:10:17;;;;;;;9.77;1.75;;;10.50;99.90;;;;;;5055984;28;20052;-80
2023/10/31 00:13:03;;;;;;;7.07;1.25;;;10.50;99.90;;;;;;5073403;28;20049;-81
2023/10/31 00:15:49;;;;;;;8.40;1.52;;;10.50;99.90;;;;;;5074254;28;20048;-81
2023/10/31 00:18:35;;;;;;;9.43;2.05;;;10.50;99.90;;;;;;5055673;28;20551;-81
2023/10/31 00:21:21;;;;;;;8.05;1.27;;;10.50;99.90;;;;;;5055767;28;20052;-80
2023/10/31 00:24:07;;;;;;;10.05;1.30;;;10.50;99.90;;;;;;5072375;28;20477;-79
2023/10/31 00:26:53;;;;;;;7.10;1.30;;;10.50;99.90;;;;;;5041315;28;20194;-79
2023/10/31 00:29:39;;;;;;;5.93;1.35;;;10.50;99.90;;;;;;5072501;28;20059;-80
2023/10/31 00:32:25;;;;;;;8.77;1.23;;;10.50;99.90;;;;;;5073604;28;20578;-80
2023/10/31 00:35:12;;;;;;;16.90;2.05;;;10.50;99.90;;;;;;5054988;28;20151;-80
2023/10/31 00:37:58;;;;;;;11.20;2.20;;;10.50;99.90;;;;;;5073316;28;20056;-79
2023/10/31 00:40:44;;;;;;;9.80;1.67;;;10.40;99.90;;;;;;5072711;28;20045;-80
2023/10/31 00:43:30;;;;;;;10.32;1.27;;;10.40;99.90;;;;;;5073073;28;20052;-80
2023/10/31 00:46:16;;;;;;;9.27;1.42;;;10.40;99.90;;;;;;5072898;28;20135;-80
2023/10/31 00:49:02;;;;;;;8.57;1.35;;;10.40;99.90;;;;;;5072683;28;20044;-80
2023/10/31 00:51:48;;;;;;;10.75;1.75;;;10.40;99.90;;;;;;5072605;28;20057;-80
2023/10/31 00:54:34;;;;;;;10.90;1.55;;;10.40;99.90;;;;;;5073114;28;20135;-80
2023/10/31 00:57:20;;;;;;;11.15;1.58;;;10.40;99.90;;;;;;5071595;28;20057;-78
2023/10/31 01:00:08;;;;;;;10.55;1.40;;;10.40;99.90;;;;;;5072597;28;20512;-80
2023/10/31 01:02:55;;;;;;;9.02;1.13;;;10.40;99.90;;;;;;5071601;28;20051;-79
2023/10/31 01:05:41;;;;;;;9.35;1.40;;;10.40;99.90;;;;;;5071438;28;20570;-78
2023/10/31 01:08:27;;;;;;;10.18;1.40;;;10.30;99.90;;;;;;5054794;28;20048;-78
2023/10/31 01:11:13;;;;;;;12.30;1.90;;;10.40;99.90;;;;;;5072525;28;20060;-78
2023/10/31 01:13:59;;;;;;;11.35;2.03;;;10.30;99.90;;;;;;5055368;28;20139;-77
2023/10/31 01:16:45;;;;;;;17.73;2.20;;;10.40;99.90;;;;;;5072107;28;20512;-79
2023/10/31 01:19:31;;;;;;;10.52;1.92;;;10.30;99.90;;;;;;5072169;28;20090;-77
2023/10/31 01:22:18;;;;;;;12.40;1.98;;;10.40;99.90;;;;;;5055088;28;20045;-80
2023/10/31 01:25:04;;;;;;;18.35;2.53;;;10.40;99.90;;;;;;5071532;28;20098;-78
2023/10/31 01:27:50;;;;;;;13.45;1.95;;;10.30;99.90;;;;;;5070491;28;20068;-79
2023/10/31 01:30:36;;;;;;;10.65;2.58;;;10.40;99.90;;;;;;5053160;28;20049;-80
2023/10/31 01:33:22;;;;;;;15.68;2.38;;;10.40;99.90;;;;;;5071616;28;20044;-79
2023/10/31 01:36:10;;;;;;;13.25;2.42;;;10.30;99.90;;;;;;5072747;28;20473;-78
2023/10/31 01:38:56;;;;;;;17.13;2.15;;;10.30;99.90;;;;;;5053637;28;20509;-79
2023/10/31 01:41:43;;;;;;;14.73;3.00;;;10.30;99.90;;;;;;5071384;28;20048;-77
2023/10/31 01:44:29;;;;;;;10.88;2.17;;;10.30;99.90;;;;;;5071211;28;20048;-77
2023/10/31 01:47:15;;;;;;;12.68;2.85;;;10.30;99.90;;;;;;5072461;28;20087;-77
2023/10/31 01:50:01;;;;;;;15.07;2.38;;;10.30;99.90;;;;;;5054535;28;20072;-78
2023/10/31 01:52:47;;;;;;;25.40;3.45;;;10.30;99.90;;;;;;5056345;28;20489;-78
2023/10/31 01:55:33;;;;;;;24.83;3.00;;;10.30;99.90;;;;;;5070869;28;20524;-78
2023/10/31 01:58:25;;;;;;;17.00;2.35;;;10.30;99.90;;;;;;5054854;28;20105;-77
2023/10/31 02:01:11;;;;;;;22.60;3.38;;;10.30;99.90;;;;;;5070681;28;20091;-78
2023/10/31 02:03:58;;;;;;;15.32;3.25;;;10.30;99.90;;;;;;5070725;28;20431;-79
2023/10/31 02:06:44;;;;;;;16.65;2.33;;;10.30;99.90;;;;;;5071359;28;20139;-77
2023/10/31 02:09:31;;;;;;;14.98;1.85;;;10.30;99.90;;;;;;5070635;28;20154;-76
2023/10/31 02:12:37;;;;;;;18.05;2.65;;;10.30;99.90;;;;;;5053632;28;20063;-77
2023/10/31 02:15:23;;;;;;;23.67;2.58;;;10.30;99.90;;;;;;5071096;28;20049;-77
2023/10/31 02:18:09;;;;;;;9.95;1.90;;;10.30;99.90;;;;;;5070394;28;20052;-77
2023/10/31 02:20:55;;;;;;;11.77;1.90;;;10.30;99.90;;;;;;5053701;28;20044;-77
2023/10/31 02:23:41;;;;;;;13.75;2.90;;;10.30;99.90;;;;;;5071457;28;20139;-76
2023/10/31 02:26:34;;;;;;;15.65;3.03;;;10.30;99.90;;;;;;5039064;28;20172;-77
2023/10/31 02:29:20;;;;;;;15.20;3.65;;;10.40;99.90;;;;;;5069025;28;20071;-76
2023/10/31 02:32:06;;;;;;;19.15;3.80;;;10.40;99.90;;;;;;5053850;28;20381;-77
2023/10/31 02:34:52;;;;;;;23.52;4.15;;;10.40;99.90;;;;;;5070040;28;20520;-77
2023/10/31 02:37:38;;;;;;;15.50;3.78;;;10.40;99.90;;;;;;5051844;28;20098;-77
2023/10/31 02:40:24;;;;;;;21.27;5.25;;;10.40;99.90;;;;;;5053435;28;20044;-77
2023/10/31 02:43:11;;;;;;;17.48;3.72;;;10.40;99.90;;;;;;5053487;28;20519;-77
2023/10/31 02:45:57;;;;;;;13.45;3.58;;;10.40;99.90;;;;;;5069923;28;20048;-77
2023/10/31 02:48:43;;;;;;;15.25;3.90;;;10.30;99.90;;;;;;5052415;28;20056;-77
2023/10/31 02:51:29;;;;;;;15.43;3.80;;;10.40;99.90;;;;;;5069874;28;20549;-77
2023/10/31 02:54:15;;;;;;;13.52;3.30;;;10.40;99.90;;;;;;5071138;28;20055;-77
2023/10/31 02:57:01;;;;;;;16.88;3.13;;;10.40;99.90;;;;;;5038654;28;20114;-77
2023/10/31 02:59:47;;;;;;;15.88;3.67;;;10.40;99.90;;;;;;5039237;28;20135;-77
2023/10/31 03:02:33;;;;;;;19.52;3.25;;;10.40;99.90;;;;;;5070792;28;20060;-77
2023/10/31 03:05:19;;;;;;;18.92;4.05;;;10.40;99.90;;;;;;5070137;28;20059;-76
2023/10/31 03:08:07;;;;;;;11.32;3.22;;;10.40;99.90;;;;;;5070046;28;20048;-77
2023/10/31 03:10:53;;;;;;;16.17;3.28;;;10.40;99.90;;;;;;5055726;28;20507;-77
2023/10/31 03:13:39;;;;;;;17.75;3.47;;;10.40;99.90;;;;;;5071041;28;20095;-77
2023/10/31 03:16:25;;;;;;;21.05;3.17;;;10.40;99.90;;;;;;5052394;28;20409;-76
2023/10/31 03:19:11;;;;;;;18.45;3.85;;;10.40;99.90;;;;;;5070410;28;20045;-76
2023/10/31 03:21:57;;;;;;;20.02;3.35;;;10.40;99.90;;;;;;5051063;28;20067;-76
2023/10/31 03:24:43;;;;;;;26.35;4.13;;;10.40;99.90;;;;;;5069651;28;20063;-77
2023/10/31 03:27:29;;;;;;;21.25;4.07;;;10.40;99.90;;;;;;5070187;28;20049;-78
2023/10/31 03:30:15;;;;;;;16.40;2.42;;;10.40;99.90;;;;;;5051117;28;20053;-76
2023/10/31 03:33:01;;;;;;;10.27;1.88;;;10.40;99.90;;;;;;5051962;28;20052;-77
2023/10/31 03:35:47;;;;;;;14.35;2.00;;;10.40;99.90;;;;;;5051608;28;20048;-78
2023/10/31 03:38:34;;;;;;;17.85;3.25;;;10.40;99.90;;;;;;5069065;28;20062;-76
2023/10/31 03:41:20;;;;;;;17.35;2.60;;;10.40;99.90;;;;;;5050099;28;20060;-77
2023/10/31 03:44:06;;;;;;;12.73;2.60;;;10.50;99.90;;;;;;5068994;28;20045;-77
2023/10/31 03:46:52;;;;;;;8.38;1.95;;;10.50;99.90;;;;;;5070736;28;20127;-76
2023/10/31 03:49:39;;;;;;;10.85;2.30;;;10.50;99.90;;;;;;5070121;28;20049;-79
2023/10/31 03:52:25;;;;;;;9.65;2.55;;;10.40;99.90;;;;;;5052245;28;20500;-78
2023/10/31 03:55:11;;;;;;;11.40;3.20;;;10.50;99.90;;;;;;5054675;28;20055;-77
2023/10/31 03:57:57;;;;;;;12.60;1.58;;;10.40;99.90;;;;;;5052338;28;20101;-77
2023/10/31 04:00:43;;;;;;;13.65;1.75;;;10.40;99.90;;;;;;5069477;28;20049;-77
2023/10/31 04:03:29;;;;;;;7.47;2.03;;;10.40;99.90;;;;;;5068878;28;20084;-78
2023/10/31 04:06:15;;;;;;;11.02;1.83;;;10.40;99.90;;;;;;5070503;28;20055;-77
2023/10/31 04:09:01;;;;;;;7.68;1.38;;;10.40;99.90;;;;;;5051918;28;20067;-77
2023/10/31 04:11:47;;;;;;;8.73;1.30;;;10.40;99.90;;;;;;5037806;28;20049;-77
2023/10/31 04:14:33;;;;;;;5.32;1.20;;;10.30;99.90;;;;;;5051659;28;20139;-77
2023/10/31 04:17:19;;;;;;;5.60;1.20;;;10.30;99.90;;;;;;5052233;28;20060;-79
2023/10/31 04:20:06;;;;;;;6.63;1.63;;;10.30;99.90;;;;;;5052394;28;20106;-77
2023/10/31 04:22:52;;;;;;;8.07;1.60;;;10.30;99.90;;;;;;5068833;28;20060;-76
2023/10/31 04:25:38;;;;;;;4.40;1.17;;;10.30;99.90;;;;;;5068581;28;20056;-78
2023/10/31 04:28:24;;;;;;;6.55;1.90;;;10.30;99.90;;;;;;5054758;28;20534;-77
2023/10/31 04:31:10;;;;;;;11.05;1.65;;;10.20;99.90;;;;;;5051260;28;20413;-79
2023/10/31 04:33:56;;;;;;;9.75;1.58;;;10.20;99.90;;;;;;5072419;28;20049;-79
2023/10/31 04:36:42;;;;;;;4.70;1.80;;;10.20;99.90;;;;;;5073381;28;20378;-77
2023/10/31 04:39:28;;;;;;;6.28;1.00;;;10.20;99.90;;;;;;5055437;28;20052;-77
2023/10/31 04:42:14;;;;;;;8.77;2.20;;;10.20;99.90;;;;;;5055025;28;20056;-78
2023/10/31 04:45:00;;;;;;;8.73;1.52;;;10.20;99.90;;;;;;5055892;28;20487;-77
2023/10/31 04:47:46;;;;;;;5.80;1.80;;;10.10;99.90;;;;;;5073478;28;20047;-77
2023/10/31 04:50:33;;;;;;;10.05;3.13;;;10.10;99.90;;;;;;5073880;28;20060;-78
2023/10/31 04:53:19;;;;;;;5.85;1.55;;;10.10;99.90;;;;;;5072720;28;20055;-78
2023/10/31 04:56:11;;;;;;;8.88;1.67;;;10.10;99.90;;;;;;5072680;28;20059;-76
2023/10/31 04:58:57;;;;;;;8.25;1.85;;;10.10;99.90;;;;;;5054702;28;20056;-77
2023/10/31 05:01:49;;;;;;;6.78;1.60;;;10.10;99.90;;;;;;5041868;28;20059;-76
2023/10/31 05:04:41;;;;;;;7.50;1.80;;;10.10;99.90;;;;;;5072096;28;20143;-77
2023/10/31 05:07:27;;;;;;;12.25;1.73;;;10.10;99.90;;;;;;5053670;28;20068;-76
2023/10/31 05:10:13;;;;;;;12.30;1.70;;;10.10;99.90;;;;;;5072825;28;20059;-77
2023/10/31 05:13:02;;;;;;;11.80;2.50;;;10.10;99.90;;;;;;5072473;28;20484;-76
2023/10/31 05:15:48;;;;;;;15.43;2.20;;;10.10;99.90;;;;;;5054200;28;20108;-76
2023/10/31 05:18:36;;;;;;;9.25;2.33;;;10.20;99.90;;;;;;5053711;28;20052;-77
2023/10/31 05:21:23;;;;;;;6.57;1.73;;;10.20;99.90;;;;;;5071282;28;20045;-76
2023/10/31 05:24:09;;;;;;;7.38;2.10;;;10.20;99.90;;;;;;5071319;28;20115;-76
2023/10/31 05:26:56;;;;;;;10.15;2.38;;;10.20;99.90;;;;;;5071736;28;20044;-76
2023/10/31 05:29:42;;;;;;;7.85;2.65;;;10.20;99.90;;;;;;5070952;28;20056;-76
2023/10/31 05:32:28;;;;;;;8.70;2.80;;;10.20;99.90;;;;;;5072712;28;20057;-78
2023/10/31 05:35:14;;;;;;;11.52;3.03;;;10.20;99.90;;;;;;5072822;28;20044;-78
2023/10/31 05:38:00;;;;;;;4.50;2.10;;;10.20;99.90;;;;;;5071290;28;20122;-77
2023/10/31 05:40:46;;;;;;;10.68;3.13;;;10.30;99.90;;;;;;5072161;28;20040;-76
2023/10/31 05:43:33;;;;;;;9.93;3.10;;;10.20;99.90;;;;;;5056292;28;20053;-76
2023/10/31 05:46:19;;;;;;;12.73;3.08;;;10.30;99.90;;;;;;5072101;28;20077;-75
2023/10/31 05:49:08;;;;;;;8.73;3.08;;;10.30;99.90;;;;;;5053696;28;20088;-78
2023/10/31 05:51:54;;;;;;;8.15;3.00;;;10.30;99.90;;;;;;5072144;28;20052;-77
2023/10/31 05:54:40;;;;;;;9.43;2.90;;;10.30;99.90;;;;;;5053436;28;20048;-79
2023/10/31 05:57:26;;;;;;;12.38;3.10;;;10.30;99.90;;;;;;5071469;28;20101;-77
2023/10/31 06:00:13;;;;;;;10.25;2.50;;;10.30;99.90;;;;;;5071374;28;20491;-79
2023/10/31 06:02:59;;;;;;;9.07;2.80;;;10.30;99.90;;;;;;5054559;28;20431;-78
2023/10/31 06:05:45;;;;;;;12.98;2.35;;;10.30;99.90;;;;;;5070916;28;20479;-77
2023/10/31 06:08:32;;;;;;;8.45;2.10;;;10.30;99.90;;;;;;5070653;28;20052;-77
2023/10/31 06:11:18;;;;;;;11.00;2.47;;;10.30;99.90;;;;;;5052944;28;20515;-77
2023/10/31 06:14:05;;;;;;;10.07;2.20;;;10.30;99.90;;;;;;5052355;28;20523;-78
2023/10/31 06:16:51;;;;;;;9.15;2.47;;;10.30;99.90;;;;;;5052885;28;20052;-80
2023/10/31 06:19:37;;;;;;;6.80;2.65;;;10.30;99.90;;;;;;5054392;28;20045;-81
2023/10/31 06:22:23;;;;;;;8.30;2.85;;;10.40;99.90;;;;;;5070553;28;20052;-81
2023/10/31 06:25:09;;;;;;;14.10;2.65;;;10.30;99.90;;;;;;5070348;28;20063;-80
2023/10/31 06:27:55;;;;;;;10.35;2.80;;;10.30;99.90;;;;;;5052846;28;20052;-81
2023/10/31 06:30:42;;;;;;;6.88;2.22;;;10.40;99.90;;;;;;5070410;28;20519;-81
2023/10/31 06:33:28;;;;;;;6.78;2.13;;;10.40;99.90;;;;;;5052590;28;20436;-81
2023/10/31 06:36:15;;;;;;;7.65;2.25;;;10.30;99.90;;;;;;5069914;28;20051;-81
2023/10/31 06:39:01;;;;;;;7.47;1.15;;;10.40;99.90;;;;;;5070137;28;20056;-79
2023/10/31 06:41:46;;;;;;;9.20;1.60;;;10.30;99.90;;;;;;5053042;28;20064;-80
2023/10/31 06:44:32;;;;;;;12.18;1.63;;;10.30;99.90;;;;;;5070426;28;20123;-80
2023/10/31 06:47:18;;;;;;;5.97;1.27;;;10.30;99.90;;;;;;5056534;28;20048;-79
2023/10/31 06:50:08;;;;;;;9.73;1.10;;;10.30;99.90;;;;;;5051199;28;20060;-80
2023/10/31 06:52:54;;;;;;;7.93;1.38;;;10.30;99.90;;;;;;5054801;28;20475;-81
2023/10/31 06:55:40;;;;;;;9.43;1.38;;;10.30;99.90;;;;;;5051354;28;20125;-79
2023/10/31 06:58:26;;;;;;;6.82;0.95;;;10.30;99.90;;;;;;5070114;28;20105;-78
2023/10/31 07:01:13;;;;;;;7.05;1.10;;;10.30;99.90;;;;;;5070564;28;20089;-81
2023/10/31 07:03:59;;;;;;;9.77;1.45;;;10.30;99.90;;;;;;5069511;28;20052;-81
2023/10/31 07:06:45;;;;;;;7.70;1.10;;;10.40;99.90;;;;;;5069576;28;20048;-80
2023/10/31 07:09:31;;;;;;;8.95;1.70;;;10.40;99.90;;;;;;5051602;28;20052;-80
2023/10/31 07:12:17;;;;;;;5.13;1.13;;;10.40;99.90;;;;;;5052147;28;20052;-82
2023/10/31 07:15:04;;;;;;;5.97;0.75;;;10.40;99.90;;;;;;5069102;28;20048;-79
2023/10/31 07:17:50;;;;;;;15.27;1.15;;;10.40;99.90;;;;;;5051553;28;20720;-82
2023/10/31 07:20:36;;;;;;;5.40;1.05;;;10.50;99.90;;;;;;5069493;28;20055;-82
2023/10/31 07:23:22;;;;;;;9.73;1.20;;;10.50;99.90;;;;;;5055236;28;20113;-82
2023/10/31 07:26:10;;;;;;;11.35;1.45;;;10.60;99.90;;;;;;5069453;28;20097;-77
2023/10/31 07:28:56;;;;;;;18.40;2.28;;;10.60;99.90;;;;;;5069996;28;20053;-80
2023/10/31 07:31:42;;;;;;;15.77;2.00;;;10.70;99.90;;;;;;5051719;28;20045;-79
2023/10/31 07:34:29;;;;;;;15.50;1.98;;;10.80;99.90;;;;;;5070069;28;20048;-79
2023/10/31 07:37:15;;;;;;;21.83;2.85;;;10.90;99.90;;;;;;5069234;28;20052;-79
2023/10/31 07:40:01;;;;;;;24.83;2.92;;;10.90;99.90;;;;;;5068947;28;20136;-79
2023/10/31 07:42:47;;;;;;;21.73;2.53;;;11.00;99.90;;;;;;5054939;28;20036;-77
2023/10/31 07:45:33;;;;;;;16.08;1.90;;;11.00;99.90;;;;;;5069589;28;20496;-76
2023/10/31 07:48:19;;;;;;;10.45;1.85;;;11.10;99.90;;;;;;5069159;28;20052;-81
2023/10/31 07:51:05;;;;;;;17.83;1.73;;;11.20;99.90;;;;;;5055348;28;20070;-80
2023/10/31 07:53:51;;;;;;;22.65;4.63;;;11.20;99.90;;;;;;5069788;28;20461;-79
2023/10/31 07:56:38;;;;;;;11.77;1.70;;;11.30;99.90;;;;;;5068892;28;20135;-79
2023/10/31 07:59:24;;;;;;;12.00;2.20;;;11.30;99.90;;;;;;5038336;28;20080;-79
2023/10/31 08:02:11;;;;;;;13.52;1.73;;;11.30;99.90;;;;;;5070067;28;20466;-78
2023/10/31 08:04:57;;;;;;;25.48;2.72;;;11.40;99.90;;;;;;5056025;28;20142;-78
2023/10/31 08:07:43;;;;;;;13.80;2.17;;;11.40;99.90;;;;;;5053885;28;20517;-77
2023/10/31 08:10:29;;;;;;;17.45;1.42;;;11.40;99.90;;;;;;5073389;28;20079;-77
2023/10/31 08:13:15;;;;;;;12.80;2.50;;;11.40;99.90;;;;;;5073721;28;20041;-78
2023/10/31 08:16:01;;;;;;;10.75;1.42;;;11.30;99.90;;;;;;5072977;28;20102;-79
2023/10/31 08:18:47;;;;;;;7.45;1.40;;;11.30;99.90;;;;;;5072980;28;20502;-78
2023/10/31 08:21:35;;;;;;;4.40;1.10;;;11.20;99.90;;;;;;5056266;28;20101;-80
2023/10/31 08:24:21;;;;;;;13.98;1.60;;;11.30;99.90;;;;;;5073983;28;20147;-78
2023/10/31 08:27:07;;;;;;;7.40;1.23;;;11.20;99.90;;;;;;5055682;28;20060;-79
2023/10/31 08:29:53;;;;;;;12.45;1.60;;;11.20;99.90;;;;;;5073395;28;20137;-78
2023/10/31 08:32:39;;;;;;;8.43;1.50;;;11.20;99.90;;;;;;5059416;28;20052;-79
2023/10/31 08:35:25;;;;;;;9.68;1.30;;;11.20;99.90;;;;;;5042575;28;20056;-78
2023/10/31 08:38:11;;;;;;;8.05;1.13;;;11.10;99.90;;;;;;5072650;28;20095;-79
2023/10/31 08:40:58;;;;;;;5.80;1.30;;;11.10;99.90;;;;;;5072751;28;20055;-81
2023/10/31 08:43:44;;;;;;;5.13;1.08;;;11.10;99.90;;;;;;5072511;28;20143;-82
2023/10/31 08:46:30;;;;;;;7.97;0.98;;;11.00;99.90;;;;;;5072716;28;20141;-78
2023/10/31 08:49:17;;;;;;;8.23;1.33;;;11.00;99.90;;;;;;5054632;28;20060;-82
2023/10/31 08:52:04;;;;;;;7.28;1.60;;;11.00;99.90;;;;;;5072039;28;20136;-79
2023/10/31 08:54:50;;;;;;;13.63;1.67;;;11.10;99.90;;;;;;5071682;28;20092;-81
2023/10/31 08:57:36;;;;;;;12.80;1.30;;;11.10;99.90;;;;;;5055460;28;20555;-79
2023/10/31 09:00:23;;;;;;;6.32;1.10;;;11.10;99.90;;;;;;5053954;28;20056;-80
2023/10/31 09:03:09;;;;;;;7.72;1.30;;;11.10;99.90;;;;;;5072254;28;20063;-79
2023/10/31 09:05:55;;;;;;;11.23;1.20;;;11.10;99.90;;;;;;5072052;28;20044;-80
2023/10/31 09:08:41;;;;;;;14.25;2.42;;;11.20;99.90;;;;;;5054116;28;20508;-81
2023/10/31 09:11:27;;;;;;;8.77;1.38;;;11.20;99.90;;;;;;5071846;28;20102;-79
2023/10/31 09:14:13;;;;;;;11.95;1.17;;;11.20;99.90;;;;;;5070545;28;20067;-79
2023/10/31 09:16:59;;;;;;;7.32;1.35;;;11.20;99.90;;;;;;5071779;28;20614;-80
2023/10/31 09:19:45;;;;;;;3.92;1.13;;;11.30;99.90;;;;;;5070725;28;20052;-82
2023/10/31 09:22:32;;;;;;;8.73;1.50;;;11.30;99.90;;;;;;5071441;28;20055;-79
2023/10/31 09:25:18;;;;;;;14.73;1.83;;;11.20;99.90;;;;;;5071440;28;20131;-82
2023/10/31 09:28:04;;;;;;;4.20;1.05;;;11.30;99.90;;;;;;5053882;28;20505;-80
2023/10/31 09:30:50;;;;;;;10.38;1.40;;;11.50;99.90;;;;;;5039945;28;20500;-82
2023/10/31 09:33:36;;;;;;;8.52;0.85;;;11.60;99.90;;;;;;5033553;28;20417;-82
2023/10/31 09:36:22;;;;;;;7.28;0.85;;;11.60;99.90;;;;;;5047520;28;20052;-79
2023/10/31 09:39:08;;;;;;;11.35;1.27;;;11.60;99.90;;;;;;5052500;28;20052;-82
2023/10/31 09:41:54;;;;;;;6.25;0.85;;;11.60;99.90;;;;;;5053237;28;20114;-82
2023/10/31 09:44:40;;;;;;;11.40;1.67;;;11.60;99.90;;;;;;5054457;28;20052;-79
2023/10/31 09:47:27;;;;;;;10.05;1.13;;;11.60;99.90;;;;;;5071092;28;20090;-81
2023/10/31 09:50:13;;;;;;;9.88;1.15;;;11.70;99.90;;;;;;5039104;28;20067;-79
2023/10/31 09:53:00;;;;;;;8.85;1.25;;;11.70;99.90;;;;;;5071200;28;20040;-82
2023/10/31 09:55:51;;;;;;;8.65;1.73;;;11.80;99.90;;;;;;5071092;28;20052;-80
2023/10/31 09:58:39;;;;;;;5.90;0.98;;;11.80;99.90;;;;;;5054723;28;20052;-80
2023/10/31 10:01:25;;;;;;;7.05;1.08;;;11.90;99.90;;;;;;5071007;28;20053;-79
2023/10/31 10:04:11;;;;;;;6.20;0.90;;;11.90;99.90;;;;;;5070762;28;20048;-80
2023/10/31 10:07:02;;;;;;;8.65;1.13;;;12.00;99.90;;;;;;5053387;28;20114;-83
2023/10/31 10:09:48;;;;;;;8.57;1.02;;;12.00;99.90;;;;;;5070746;28;20060;-82
2023/10/31 10:12:34;;;;;;;18.92;1.60;;;12.10;99.90;;;;;;5070715;28;20052;-80
2023/10/31 10:15:20;;;;;;;8.48;1.00;;;12.10;99.90;;;;;;5071382;28;20714;-83
2023/10/31 10:18:08;;;;;;;5.13;1.00;;;12.10;99.90;;;;;;5056353;28;20131;-83
2023/10/31 10:20:56;;;;;;;9.18;1.10;;;12.20;99.90;;;;;;5070986;28;20044;-82
2023/10/31 10:23:42;;;;;;;6.65;1.00;;;12.40;99.90;;;;;;5054540;28;20052;-82
2023/10/31 10:26:28;;;;;;;8.93;1.52;;;12.40;99.90;;;;;;5071175;28;20141;-81
2023/10/31 10:29:15;;;;;;;11.13;1.20;;;12.50;99.90;;;;;;5070140;28;20053;-82
2023/10/31 10:32:01;;;;;;;6.47;1.65;;;12.50;99.90;;;;;;5070117;28;20174;-82
2023/10/31 10:34:47;;;;;;;10.65;0.77;;;12.70;99.90;;;;;;5051645;28;20072;-82
2023/10/31 10:37:37;;;;;;;6.18;1.40;;;13.00;99.90;;;;;;5055755;28;20468;-81
2023/10/31 10:40:23;;;;;;;8.32;2.03;;;13.00;99.90;;;;;;5071112;28;20131;-79
2023/10/31 10:43:23;;;;;;;8.73;1.15;;;13.00;99.90;;;;;;5070177;28;20123;-81
2023/10/31 10:46:15;;;;;;;7.22;1.30;;;12.90;99.90;;;;;;5053807;28;20048;-82
2023/10/31 10:49:04;;;;;;;10.20;1.48;;;12.90;99.90;;;;;;5055636;28;20048;-82
2023/10/31 10:52:01;;;;;;;7.95;1.52;;;13.10;99.90;;;;;;5069522;28;20500;-79
2023/10/31 10:55:07;;;;;;;8.93;1.70;;;13.10;99.90;;;;;;5069860;28;20056;-81
2023/10/31 10:57:56;;;;;;;8.68;1.50;;;13.30;99.90;;;;;;5052093;28;20079;-83
2023/10/31 11:00:43;;;;;;;11.25;1.17;;;13.60;99.90;;;;;;5070139;28;20052;-82
2023/10/31 11:03:30;;;;;;;8.00;1.15;;;13.80;99.90;;;;;;5053575;28;20044;-84
2023/10/31 11:06:16;;;;;;;8.52;1.63;;;13.70;99.90;;;;;;5069726;28;20044;-81
2023/10/31 11:09:02;;;;;;;8.82;1.27;;;13.40;99.90;;;;;;5070093;28;20404;-79
2023/10/31 11:11:50;;;;;;;8.00;1.63;;;13.30;99.90;;;;;;5053046;28;20060;-81
2023/10/31 11:14:37;;;;;;;8.98;1.65;;;13.00;99.90;;;;;;5053105;28;20064;-83
2023/10/31 11:17:36;;;;;;;7.43;1.88;;;13.00;99.90;;;;;;5071489;28;20568;-79
2023/10/31 11:20:23;;;;;;;9.13;1.10;;;12.90;99.90;;;;;;5054887;28;20049;-80
2023/10/31 11:23:09;;;;;;;9.55;1.83;;;12.80;99.90;;;;;;5053231;28;20056;-80
2023/10/31 11:25:55;;;;;;;11.45;1.58;;;12.80;99.90;;;;;;5071196;28;20059;-81
2023/10/31 11:28:42;;;;;;;13.75;1.92;;;12.70;99.90;;;;;;5058154;28;20144;-80
2023/10/31 11:31:28;;;;;;;12.80;1.27;;;12.50;99.90;;;;;;5053504;28;20056;-79
2023/10/31 11:34:18;;;;;;;19.63;2.60;;;12.40;99.90;;;;;;5050927;28;20049;-78
2023/10/31 11:37:31;;;;;;;7.45;1.33;;;12.30;99.90;;;;;;5052037;28;20110;-80
2023/10/31 11:40:22;;;;;;;6.60;1.05;;;12.10;99.90;;;;;;5052833;28;20131;-78
2023/10/31 11:43:10;;;;;;;6.80;1.20;;;12.00;99.90;;;;;;5075902;28;20459;-77
2023/10/31 11:46:00;;;;;;;7.22;1.45;;;11.90;99.90;;;;;;5057705;28;20539;-78
2023/10/31 11:48:55;;;;;;;10.05;1.90;;;11.80;99.90;;;;;;5076694;28;20183;-78
2023/10/31 11:51:45;;;;;;;6.50;1.25;;;11.70;99.90;;;;;;5061154;28;20493;-78
2023/10/31 11:54:32;;;;;;;12.63;3.20;;;11.60;99.90;;;;;;5075692;28;20048;-77
2023/10/31 11:57:28;;;;;;;8.25;1.10;;;11.60;99.90;;;;;;5075838;28;20127;-78
2023/10/31 12:00:22;;;;;;;4.15;0.90;;;11.50;99.90;;;;;;5060252;28;20040;-77
2023/10/31 12:03:08;;;;;;;3.55;0.70;;;11.60;99.90;;;;;;5075955;28;20048;-78
2023/10/31 12:06:01;;;;;;;5.68;1.30;;;11.60;99.90;;;;;;5075785;28;20048;-78
2023/10/31 12:08:48;;;;;;;8.23;1.30;;;11.60;99.90;;;;;;5057628;28;20041;-77
2023/10/31 12:11:44;;;;;;;5.75;1.15;;;11.50;99.90;;;;;;5059538;28;20416;-79
2023/10/31 12:14:30;;;;;;;8.63;1.55;;;11.60;99.90;;;;;;5075920;28;20090;-77
2023/10/31 12:17:16;;;;;;;10.85;1.75;;;11.60;99.90;;;;;;5044350;28;20051;-78
2023/10/31 12:20:07;;;;;;;8.60;1.63;;;11.60;99.90;;;;;;5076175;28;20048;-77
2023/10/31 12:23:03;;;;;;;7.88;1.40;;;11.50;99.90;;;;;;5076512;28;20051;-78
2023/10/31 12:25:53;;;;;;;8.68;1.10;;;11.50;99.90;;;;;;5057243;28;20067;-78
2023/10/31 12:28:41;;;;;;;4.93;1.38;;;11.60;99.90;;;;;;5058787;28;20102;-78
2023/10/31 12:31:27;;;;;;;6.60;1.15;;;11.50;99.90;;;;;;5075311;28;20150;-78
2023/10/31 12:34:17;;;;;;;7.93;1.17;;;11.60;99.90;;;;;;5056846;28;20059;-78
2023/10/31 12:37:03;;;;;;;3.35;0.70;;;11.60;99.90;;;;;;5075981;28;20140;-78
2023/10/31 12:39:50;;;;;;;10.35;1.27;;;11.60;99.90;;;;;;5043142;28;20111;-78
2023/10/31 12:42:37;;;;;;;12.50;1.83;;;11.60;99.90;;;;;;5043775;28;20131;-82
2023/10/31 12:45:24;;;;;;;6.75;1.27;;;11.70;99.90;;;;;;5075080;28;20511;-82
2023/10/31 12:48:11;;;;;;;7.75;1.33;;;11.70;99.90;;;;;;5059027;28;20390;-79
2023/10/31 12:51:08;;;;;;;9.00;1.00;;;11.60;99.90;;;;;;5075949;28;20049;-81
2023/10/31 12:53:55;;;;;;;7.93;1.60;;;11.50;99.90;;;;;;5072730;28;20048;-82
2023/10/31 12:56:42;;;;;;;7.28;1.48;;;11.50;99.90;;;;;;5072827;28;20048;-81
2023/10/31 12:59:28;;;;;;;9.18;1.20;;;11.50;99.90;;;;;;5072042;28;20051;-82
2023/10/31 13:02:17;;;;;;;8.77;0.95;;;11.40;99.90;;;;;;5071794;28;20044;-77
2023/10/31 13:05:14;;;;;;;10.10;1.17;;;11.40;99.90;;;;;;5072256;28;20103;-79
2023/10/31 13:08:00;;;;;;;4.25;0.73;;;11.30;99.90;;;;;;5073021;28;20052;-81
2023/10/31 13:10:46;;;;;;;13.27;1.40;;;11.30;99.90;;;;;;5053873;28;20052;-80
2023/10/31 13:13:32;;;;;;;10.95;1.08;;;11.40;99.90;;;;;;5072328;28;20433;-79
2023/10/31 13:16:19;;;;;;;5.10;0.90;;;11.40;99.90;;;;;;5072114;28;20141;-81
2023/10/31 13:19:05;;;;;;;8.77;1.50;;;11.40;99.90;;;;;;5071726;28;20045;-81
2023/10/31 13:21:51;;;;;;;7.60;1.13;;;11.30;99.90;;;;;;5072582;28;20098;-80
2023/10/31 13:24:37;;;;;;;5.07;1.25;;;11.30;99.90;;;;;;5045417;28;20137;-81
2023/10/31 13:27:23;;;;;;;6.90;1.60;;;11.40;99.90;;;;;;5054520;28;20075;-81
2023/10/31 13:30:11;;;;;;;5.80;1.20;;;11.30;99.90;;;;;;5070919;28;20473;-81
2023/10/31 13:32:57;;;;;;;9.48;1.27;;;11.40;99.90;;;;;;5054898;28;20527;-81
2023/10/31 13:35:43;;;;;;;4.97;1.00;;;11.40;99.90;;;;;;5071509;28;20199;-78
2023/10/31 13:38:29;;;;;;;5.32;1.80;;;11.50;99.90;;;;;;5071740;28;20048;-77
2023/10/31 13:41:15;;;;;;;4.95;0.75;;;11.50;99.90;;;;;;5054590;28;20048;-81
2023/10/31 13:44:03;;;;;;;11.30;1.10;;;11.60;99.90;;;;;;5057116;28;20051;-81
2023/10/31 13:46:49;;;;;;;6.70;1.00;;;11.70;99.90;;;;;;5071667;28;20049;-82
2023/10/31 13:49:36;;;;;;;7.22;1.42;;;11.70;99.90;;;;;;5071253;28;20060;-81
2023/10/31 13:52:23;;;;;;;5.25;0.85;;;11.70;99.90;;;;;;5054649;28;20139;-81
2023/10/31 13:55:09;;;;;;;6.53;1.40;;;11.70;99.90;;;;;;5071277;28;20058;-80
2023/10/31 13:57:55;;;;;;;10.32;1.25;;;11.70;99.90;;;;;;5070933;28;20146;-81
2023/10/31 14:00:45;;;;;;;4.47;1.60;;;11.80;99.90;;;;;;5071247;28;20060;-78
2023/10/31 14:03:31;;;;;;;3.78;1.33;;;11.80;99.90;;;;;;5053268;28;20473;-78
2023/10/31 14:06:17;;;;;;;6.82;1.05;;;11.90;99.90;;;;;;5071298;28;20045;-78
2023/10/31 14:09:04;;;;;;;3.30;0.68;;;12.10;99.90;;;;;;5071001;28;20094;-79
2023/10/31 14:11:50;;;;;;;4.53;0.90;;;12.10;99.90;;;;;;5053617;28;20102;-81
2023/10/31 14:14:36;;;;;;;7.32;1.00;;;12.20;99.90;;;;;;5071295;28;20063;-82
2023/10/31 14:17:23;;;;;;;5.20;0.70;;;12.30;99.90;;;;;;5070635;28;20044;-81
2023/10/31 14:20:09;;;;;;;5.28;0.70;;;12.30;99.90;;;;;;5070751;28;20056;-80
2023/10/31 14:22:55;;;;;;;4.15;0.60;;;12.70;99.90;;;;;;5071600;28;20048;-80
2023/10/31 14:25:41;;;;;;;8.07;1.15;;;13.00;99.90;;;;;;5070991;28;20040;-79